Time;durP1;ratioP1;P1;durP2;ratioP2;P2;SDS_P1;SDS_P2;PMS_P1;PMS_P2;Temp;Humidity;BMP_temperature;BMP_pressure;BME280_temperature;BME280_humidity;BME280_pressure;Samples;Min_cycle;Max_cycle;Signal;HPM_P1;HPM_P2
2022/04/03 00:02:27;;;;;;;23.02;13.18;;;;;;;3.31;74.36;99451.63;5374161;32;35458;-62
2022/04/03 00:05:29;;;;;;;25.73;14.27;;;;;;;3.37;77.02;99447.13;5358048;32;34844;-62
2022/04/03 00:08:31;;;;;;;25.47;13.53;;;;;;;2.78;80.00;99448.56;5374174;32;34625;-61
2022/04/03 00:11:33;;;;;;;24.33;13.60;;;;;;;2.42;81.07;99457.06;5362074;32;34664;-63
2022/04/03 00:14:35;;;;;;;27.33;14.27;;;;;;;2.76;80.86;99460.69;5372637;32;44549;-64
2022/04/03 00:17:37;;;;;;;27.43;14.73;;;;;;;2.74;81.77;99463.31;5360215;32;35023;-63
2022/04/03 00:20:40;;;;;;;23.80;13.47;;;;;;;2.25;81.74;99466.94;5355594;32;35304;-63
2022/04/03 00:23:42;;;;;;;21.93;12.73;;;;;;;2.43;82.59;99461.38;5374369;32;34108;-62
2022/04/03 00:26:45;;;;;;;23.20;12.77;;;;;;;1.83;84.83;99476.38;5361305;32;34568;-63
2022/04/03 00:29:47;;;;;;;24.63;13.00;;;;;;;2.05;85.66;99464.72;5377595;32;34472;-63
2022/04/03 00:32:49;;;;;;;25.43;13.33;;;;;;;2.51;83.22;99474.16;5356985;32;34951;-64
2022/04/03 00:35:51;;;;;;;25.23;13.03;;;;;;;2.69;81.66;99480.72;5372260;32;35354;-62
2022/04/03 00:38:53;;;;;;;25.63;13.27;;;;;;;2.68;80.94;99479.00;5348296;32;35557;-62
2022/04/03 00:41:55;;;;;;;23.90;12.60;;;;;;;2.54;82.05;99476.72;5350243;32;34679;-62
2022/04/03 00:44:57;;;;;;;24.33;13.17;;;;;;;2.31;83.15;99476.31;5372967;32;35159;-63
2022/04/03 00:48:00;;;;;;;23.80;12.73;;;;;;;2.97;81.81;99481.84;5351421;32;34609;-62
2022/04/03 00:51:02;;;;;;;23.40;12.40;;;;;;;3.61;77.54;99487.25;5373605;32;37443;-63
2022/04/03 00:54:05;;;;;;;22.80;12.43;;;;;;;3.41;78.37;99484.25;5345898;32;42713;-62
2022/04/03 00:57:07;;;;;;;24.60;12.90;;;;;;;3.13;79.39;99484.91;5374726;32;34676;-63
2022/04/03 01:00:12;;;;;;;21.17;11.87;;;;;;;3.45;76.29;99481.56;5359859;32;35111;-63
2022/04/03 01:03:14;;;;;;;25.87;13.23;;;;;;;3.15;79.20;99488.31;5363862;32;34086;-63
2022/04/03 01:06:17;;;;;;;23.00;12.30;;;;;;;3.77;76.59;99491.16;5374921;32;35427;-63
2022/04/03 01:09:19;;;;;;;23.20;12.27;;;;;;;3.42;75.59;99488.59;5364512;32;34498;-62
2022/04/03 01:12:21;;;;;;;23.90;12.80;;;;;;;3.15;76.76;99501.31;5375425;32;35381;-62
2022/04/03 01:15:53;;;;;;;23.70;12.70;;;;;;;2.80;79.57;99506.44;5358237;32;44798;-62
2022/04/03 01:18:56;;;;;;;23.73;12.70;;;;;;;2.56;80.06;99506.06;5357759;32;35812;-62
2022/04/03 01:21:58;;;;;;;22.63;12.17;;;;;;;1.81;83.73;99515.28;5371477;32;35471;-63
2022/04/03 01:25:00;;;;;;;24.57;13.30;;;;;;;2.41;82.46;99504.66;5363057;32;35590;-62
2022/04/03 01:28:02;;;;;;;24.20;12.47;;;;;;;2.49;82.21;99504.50;5363069;32;34716;-63
2022/04/03 01:31:04;;;;;;;22.53;11.43;;;;;;;2.47;81.78;99515.78;5362262;32;44478;-64
2022/04/03 01:34:07;;;;;;;25.47;12.73;;;;;;;2.12;82.42;99520.75;5372896;32;34181;-62
2022/04/03 01:37:09;;;;;;;23.63;12.77;;;;;;;2.34;80.98;99515.19;5358784;32;34752;-63
2022/04/03 01:40:12;;;;;;;22.67;12.40;;;;;;;2.41;84.09;99532.31;5337395;32;35107;-63
2022/04/03 01:43:14;;;;;;;22.97;12.53;;;;;;;2.49;81.85;99524.38;5373411;32;35062;-61
2022/04/03 01:46:16;;;;;;;23.27;11.73;;;;;;;2.18;84.72;99536.19;5359631;32;34723;-63
2022/04/03 01:49:18;;;;;;;23.40;12.03;;;;;;;3.65;76.13;99521.78;5375902;32;35015;-61
2022/04/03 01:52:20;;;;;;;21.73;11.27;;;;;;;3.02;79.49;99506.81;5360850;32;35522;-63
2022/04/03 01:55:24;;;;;;;22.60;10.43;;;;;;;3.17;76.20;99517.72;5375675;32;34084;-61
2022/04/03 01:58:26;;;;;;;21.33;10.27;;;;;;;2.98;80.65;99532.00;5365160;32;35611;-61
2022/04/03 02:01:32;;;;;;;19.67;10.03;;;;;;;2.02;84.07;99528.75;5371531;32;34876;-61
2022/04/03 02:04:34;;;;;;;17.60;9.77;;;;;;;2.41;84.29;99538.38;5374024;32;47724;-62
2022/04/03 02:07:36;;;;;;;17.33;8.77;;;;;;;2.37;81.82;99536.69;5358756;32;34833;-62
2022/04/03 02:10:39;;;;;;;15.90;8.53;;;;;;;3.56;78.15;99537.63;5373262;32;34089;-62
2022/04/03 02:13:41;;;;;;;14.90;7.80;;;;;;;2.97;79.41;99544.13;5362694;32;35198;-62
2022/04/03 02:16:43;;;;;;;15.50;7.90;;;;;;;2.68;80.04;99546.47;5367674;32;35268;-63
2022/04/03 02:19:45;;;;;;;13.30;6.93;;;;;;;2.69;79.90;99543.00;5358639;32;35053;-63
2022/04/03 02:22:54;;;;;;;14.57;7.10;;;;;;;2.27;82.26;99552.47;5353943;32;34492;-61
2022/04/03 02:25:56;;;;;;;14.53;7.07;;;;;;;2.16;82.42;99552.66;5373193;32;35293;-62
2022/04/03 02:28:58;;;;;;;12.57;6.23;;;;;;;2.86;80.77;99560.81;5360910;32;35591;-62
2022/04/03 02:32:00;;;;;;;12.03;6.70;;;;;;;3.18;79.41;99560.97;5371868;32;35072;-62
2022/04/03 02:35:04;;;;;;;13.27;6.97;;;;;;;2.69;80.04;99562.00;5364274;32;34118;-63
2022/04/03 02:38:07;;;;;;;13.90;7.00;;;;;;;3.15;80.06;99568.81;5360474;32;44408;-62
2022/04/03 02:41:09;;;;;;;13.03;6.63;;;;;;;2.36;80.80;99568.72;5358901;32;35065;-62
2022/04/03 02:44:13;;;;;;;13.10;6.67;;;;;;;2.14;81.66;99577.78;5362138;32;34965;-63
2022/04/03 02:47:16;;;;;;;12.97;6.40;;;;;;;1.96;83.16;99571.16;5374777;32;35017;-62
2022/04/03 02:50:20;;;;;;;13.37;6.67;;;;;;;2.38;81.20;99586.81;5361111;32;35878;-63
2022/04/03 02:53:22;;;;;;;13.00;6.37;;;;;;;2.35;82.48;99581.72;5372826;32;34243;-62
2022/04/03 02:56:24;;;;;;;13.70;7.00;;;;;;;2.41;81.45;99591.97;5358278;32;34527;-61
2022/04/03 02:59:26;;;;;;;12.70;6.47;;;;;;;2.46;81.91;99584.13;5364231;32;34822;-62
2022/04/03 03:02:28;;;;;;;12.67;6.37;;;;;;;3.04;79.61;99585.53;5370356;32;35054;-63
2022/04/03 03:05:31;;;;;;;12.53;6.47;;;;;;;2.55;80.42;99592.56;5363221;32;35581;-63
2022/04/03 03:08:33;;;;;;;13.03;6.53;;;;;;;3.23;77.25;99590.31;5376512;32;34767;-62
2022/04/03 03:11:35;;;;;;;13.07;6.87;;;;;;;2.69;79.57;99595.72;5359824;32;44756;-61
2022/04/03 03:14:37;;;;;;;13.73;7.20;;;;;;;2.38;80.96;99607.56;5373407;32;34260;-61
2022/04/03 03:17:40;;;;;;;13.57;7.37;;;;;;;2.41;81.52;99605.78;5357408;32;34826;-62
2022/04/03 03:20:42;;;;;;;14.53;7.60;;;;;;;2.29;81.62;99603.41;5361494;32;35315;-63
2022/04/03 03:23:44;;;;;;;14.37;7.10;;;;;;;2.54;82.37;99615.94;5369533;32;35376;-62
2022/04/03 03:26:46;;;;;;;14.17;7.77;;;;;;;2.21;82.59;99622.59;5361727;32;34320;-63
2022/04/03 03:29:48;;;;;;;15.47;7.53;;;;;;;2.26;81.30;99623.38;5374225;32;34885;-62
2022/04/03 03:32:50;;;;;;;14.27;7.87;;;;;;;1.88;81.31;99635.22;5361174;32;34857;-63
2022/04/03 03:35:53;;;;;;;15.40;7.37;;;;;;;1.89;83.12;99629.16;5374954;32;34461;-62
2022/04/03 03:38:55;;;;;;;13.90;7.40;;;;;;;1.85;85.56;99645.63;5343792;32;35955;-62
2022/04/03 03:41:57;;;;;;;15.57;7.53;;;;;;;1.90;83.01;99639.50;5357044;32;34498;-63
2022/04/03 03:45:01;;;;;;;15.47;7.97;;;;;;;1.85;84.00;99640.44;5372678;32;34939;-63
2022/04/03 03:48:03;;;;;;;15.25;8.52;;;;;;;2.69;80.91;99642.44;5354469;32;35604;-63
2022/04/03 03:51:06;;;;;;;14.37;7.57;;;;;;;2.27;82.01;99648.41;5373589;32;46715;-63
2022/04/03 03:54:08;;;;;;;15.13;8.03;;;;;;;1.90;83.66;99651.59;5362345;32;34093;-62
2022/04/03 03:57:10;;;;;;;16.20;8.77;;;;;;;2.02;84.92;99658.34;5373743;32;34875;-62
2022/04/03 04:00:14;;;;;;;14.17;7.90;;;;;;;2.18;84.56;99654.59;5351785;32;34972;-63
2022/04/03 04:03:16;;;;;;;16.52;7.93;;;;;;;1.83;86.25;99675.91;5353037;32;34874;-62
2022/04/03 04:06:18;;;;;;;15.73;8.10;;;;;;;3.12;80.75;99672.75;5369169;32;126396;-62
2022/04/03 04:09:21;;;;;;;15.53;7.80;;;;;;;2.05;82.84;99679.88;5356406;32;34673;-62
2022/04/03 04:12:23;;;;;;;14.10;7.87;;;;;;;2.97;80.08;99683.47;5371315;32;34577;-62
2022/04/03 04:15:25;;;;;;;14.70;7.60;;;;;;;2.40;81.13;99689.69;5361713;32;36658;-62
2022/04/03 04:18:28;;;;;;;14.37;7.47;;;;;;;2.03;83.33;99692.00;5365293;32;34802;-64
2022/04/03 04:21:30;;;;;;;13.60;7.67;;;;;;;2.28;83.79;99689.03;5359560;32;35004;-63
2022/04/03 04:24:32;;;;;;;16.20;8.23;;;;;;;1.69;84.96;99693.38;5358476;32;36727;-63
2022/04/03 04:27:35;;;;;;;15.80;8.07;;;;;;;2.07;84.29;99708.38;5371072;32;44595;-63
2022/04/03 04:30:38;;;;;;;16.10;7.97;;;;;;;2.37;82.85;99705.28;5360033;32;35377;-63
2022/04/03 04:33:40;;;;;;;15.67;7.73;;;;;;;2.05;83.91;99710.97;5374265;32;34563;-62
2022/04/03 04:36:42;;;;;;;14.07;7.27;;;;;;;1.90;84.59;99726.75;5341629;32;34858;-63
2022/04/03 04:39:45;;;;;;;13.57;7.63;;;;;;;2.83;81.83;99721.78;5353254;32;35330;-62
2022/04/03 04:42:47;;;;;;;13.87;7.03;;;;;;;2.78;79.68;99718.44;5358427;32;34854;-63
2022/04/03 04:45:49;;;;;;;14.53;7.13;;;;;;;2.89;78.73;99739.84;5362553;32;34702;-63
2022/04/03 04:48:51;;;;;;;14.20;7.27;;;;;;;2.33;81.10;99734.75;5366438;32;34535;-62
2022/04/03 04:51:54;;;;;;;14.93;7.50;;;;;;;2.37;81.78;99743.31;5361735;32;34313;-63
2022/04/03 04:54:56;;;;;;;13.63;6.67;;;;;;;1.98;84.56;99753.41;5377445;32;34895;-62
2022/04/03 04:57:58;;;;;;;14.17;7.03;;;;;;;2.95;81.23;99758.75;5352613;32;35580;-62
2022/04/03 05:01:00;;;;;;;15.00;7.43;;;;;;;2.96;81.05;99751.81;5373850;32;34310;-62
2022/04/03 05:04:02;;;;;;;15.00;7.17;;;;;;;3.44;78.49;99752.62;5362321;32;34970;-63
2022/04/03 05:07:05;;;;;;;13.80;6.67;;;;;;;3.08;79.79;99759.38;5362630;32;44644;-62
2022/04/03 05:10:08;;;;;;;13.43;7.10;;;;;;;2.88;77.96;99767.53;5378434;32;34002;-63
2022/04/03 05:13:11;;;;;;;13.02;7.22;;;;;;;2.59;78.92;99762.84;5354117;32;35217;-62
2022/04/03 05:16:13;;;;;;;13.47;6.93;;;;;;;3.15;81.54;99773.09;5374632;32;34280;-62
2022/04/03 05:19:16;;;;;;;14.53;7.13;;;;;;;3.61;78.67;99773.09;5348828;32;35327;-62
2022/04/03 05:22:20;;;;;;;13.63;7.00;;;;;;;3.39;77.13;99776.97;5356206;32;34862;-63
2022/04/03 05:25:23;;;;;;;13.83;7.03;;;;;;;2.94;79.33;99775.22;5363431;32;34676;-62
2022/04/03 05:28:26;;;;;;;13.70;7.60;;;;;;;2.49;81.01;99792.41;5361161;32;33896;-62
2022/04/03 05:31:28;;;;;;;14.07;8.00;;;;;;;2.84;81.79;99796.19;5361076;32;34480;-62
2022/04/03 05:34:30;;;;;;;13.80;7.37;;;;;;;2.80;79.85;99787.59;5360249;32;34625;-62
2022/04/03 05:37:33;;;;;;;14.97;7.93;;;;;;;2.68;80.32;99806.81;5374149;32;34880;-61
2022/04/03 05:40:35;;;;;;;14.33;7.57;;;;;;;3.08;80.28;99808.72;5339022;32;44466;-62
2022/04/03 05:43:37;;;;;;;12.47;6.63;;;;;;;2.57;79.36;99813.88;5349180;32;34903;-63
2022/04/03 05:46:39;;;;;;;13.93;6.73;;;;;;;3.78;75.53;99815.16;5368748;32;35405;-63
2022/04/03 05:49:41;;;;;;;14.07;7.70;;;;;;;3.48;76.11;99815.78;5362448;32;35057;-62
2022/04/03 05:52:47;;;;;;;13.10;6.30;;;;;;;4.05;74.31;99813.72;5364843;32;34635;-63
2022/04/03 05:55:49;;;;;;;12.17;6.23;;;;;;;3.32;76.94;99825.59;5353946;32;35399;-63
2022/04/03 05:58:51;;;;;;;12.33;6.37;;;;;;;3.66;76.22;99822.34;5361481;32;35137;-62
2022/04/03 06:01:53;;;;;;;11.47;5.53;;;;;;;4.48;72.55;99832.72;5345079;32;34476;-62
2022/04/03 06:04:56;;;;;;;11.83;5.70;;;;;;;4.47;71.56;99825.81;5354127;32;35271;-62
2022/04/03 06:07:58;;;;;;;9.90;4.87;;;;;;;2.99;76.43;99827.91;5360178;32;35704;-62
2022/04/03 06:11:00;;;;;;;11.50;5.13;;;;;;;3.95;74.29;99839.97;5344025;32;35042;-62
2022/04/03 06:14:03;;;;;;;9.57;4.63;;;;;;;4.66;71.30;99837.50;5372492;32;34657;-63
2022/04/03 06:17:05;;;;;;;9.83;4.70;;;;;;;4.49;71.28;99844.84;5355452;32;45585;-63
2022/04/03 06:20:07;;;;;;;10.13;4.67;;;;;;;3.56;73.73;99844.22;5370747;32;35286;-63
2022/04/03 06:23:14;;;;;;;11.20;5.60;;;;;;;4.73;72.19;99848.63;5359318;32;34932;-63
2022/04/03 06:26:16;;;;;;;8.43;4.30;;;;;;;4.76;71.34;99858.97;5363352;32;34371;-63
2022/04/03 06:29:18;;;;;;;10.20;4.83;;;;;;;5.03;71.09;99854.84;5371507;32;35206;-62
2022/04/03 06:32:20;;;;;;;8.33;4.17;;;;;;;4.45;72.44;99861.44;5360647;32;35177;-63
2022/04/03 06:35:22;;;;;;;9.50;4.43;;;;;;;4.39;73.18;99869.38;5372635;32;33250;-63
2022/04/03 06:38:25;;;;;;;9.10;5.03;;;;;;;4.41;72.54;99878.00;5346942;32;37101;-63
2022/04/03 06:41:27;;;;;;;8.43;4.43;;;;;;;4.52;72.03;99873.41;5363762;32;34623;-62
2022/04/03 06:44:30;;;;;;;10.63;4.50;;;;;;;5.18;68.52;99877.91;5358107;32;35177;-63
2022/04/03 06:47:32;;;;;;;9.47;4.50;;;;;;;5.12;70.30;99884.13;5357957;32;34371;-62
2022/04/03 06:50:34;;;;;;;9.07;4.60;;;;;;;4.34;71.69;99885.94;5360364;32;44449;-62
2022/04/03 06:53:36;;;;;;;10.57;5.33;;;;;;;4.43;71.24;99895.28;5359137;32;34939;-63
2022/04/03 06:56:39;;;;;;;9.43;4.43;;;;;;;3.93;74.73;99897.22;5373326;32;34738;-62
2022/04/03 06:59:42;;;;;;;9.37;4.40;;;;;;;4.23;70.41;99903.50;5353969;32;34875;-63
2022/04/03 07:02:44;;;;;;;12.63;5.40;;;;;;;4.21;72.62;99909.66;5372945;32;35434;-62
2022/04/03 07:05:46;;;;;;;10.80;5.30;;;;;;;4.98;69.57;99908.78;5359520;32;34699;-63
2022/04/03 07:08:48;;;;;;;9.60;5.37;;;;;;;5.07;69.39;99919.84;5357561;32;34697;-64
2022/04/03 07:11:50;;;;;;;13.73;6.60;;;;;;;4.48;71.89;99919.47;5373298;32;35244;-63
2022/04/03 07:14:56;;;;;;;12.40;6.60;;;;;;;4.34;72.11;99918.91;5358718;32;35396;-63
2022/04/03 07:17:58;;;;;;;12.20;6.80;;;;;;;4.92;68.49;99928.03;5369453;32;35006;-63
2022/04/03 07:21:00;;;;;;;14.83;9.03;;;;;;;4.51;68.92;99941.97;5360501;32;35446;-63
2022/04/03 07:24:04;;;;;;;11.80;6.57;;;;;;;4.00;72.92;99940.41;5371115;32;34654;-63
2022/04/03 07:27:07;;;;;;;13.17;7.33;;;;;;;4.00;71.39;99947.34;5359551;32;44509;-62
2022/04/03 07:30:12;;;;;;;14.33;7.60;;;;;;;3.45;73.21;99950.94;5359667;32;34488;-63
2022/04/03 07:33:14;;;;;;;14.87;8.13;;;;;;;3.64;73.29;99962.72;5366692;32;35233;-64
2022/04/03 07:36:17;;;;;;;14.40;8.03;;;;;;;3.54;74.90;99961.16;5358945;32;35589;-62
2022/04/03 07:39:20;;;;;;;19.53;9.10;;;;;;;3.47;75.18;99969.94;5338994;32;34725;-62
2022/04/03 07:42:22;;;;;;;15.88;8.27;;;;;;;4.17;74.25;99967.81;5355271;32;34955;-63
2022/04/03 07:45:25;;;;;;;17.53;10.00;;;;;;;3.63;74.26;99988.75;5369068;32;36120;-65
2022/04/03 07:48:27;;;;;;;18.83;10.17;;;;;;;3.58;75.47;99994.00;5361099;32;34925;-62
2022/04/03 07:51:29;;;;;;;18.67;10.37;;;;;;;3.69;76.21;99992.09;5358368;32;35329;-63
2022/04/03 07:54:32;;;;;;;20.57;11.87;;;;;;;3.50;77.80;100001.09;5372094;32;35480;-62
2022/04/03 07:57:34;;;;;;;20.73;11.43;;;;;;;4.16;72.78;100002.50;5358209;32;44481;-63
2022/04/03 08:00:36;;;;;;;20.73;11.70;;;;;;;3.43;77.98;100012.47;5374093;32;35146;-63
2022/04/03 08:03:38;;;;;;;23.90;12.50;;;;;;;3.99;77.97;100016.69;5351576;32;34761;-62
2022/04/03 08:06:41;;;;;;;21.43;13.00;;;;;;;3.62;76.40;100021.69;5367460;32;35954;-63
2022/04/03 08:09:43;;;;;;;25.03;13.30;;;;;;;3.98;76.38;100027.09;5364949;32;34309;-63
2022/04/03 08:12:47;;;;;;;23.27;13.80;;;;;;;3.92;74.27;100033.28;5357669;32;34545;-63
2022/04/03 08:15:50;;;;;;;27.33;15.63;;;;;;;3.94;73.12;100038.47;5374068;32;34321;-64
2022/04/03 08:18:52;;;;;;;31.37;16.60;;;;;;;3.83;72.53;100040.37;5357415;32;34365;-63
2022/04/03 08:21:54;;;;;;;29.30;15.30;;;;;;;4.40;72.83;100032.41;5374647;32;35030;-62
2022/04/03 08:24:56;;;;;;;28.57;16.10;;;;;;;4.03;75.01;100041.75;5360934;32;34725;-63
2022/04/03 08:28:04;;;;;;;27.00;15.73;;;;;;;4.38;72.13;100040.25;5363405;32;44930;-64
2022/04/03 08:31:06;;;;;;;26.67;15.10;;;;;;;4.07;72.50;100029.56;5369178;32;34718;-63
2022/04/03 08:34:10;;;;;;;29.35;16.45;;;;;;;3.73;75.81;100045.72;5359912;32;34178;-63
2022/04/03 08:37:32;;;;;;;27.73;15.00;;;;;;;4.31;71.62;100044.69;5373999;32;34989;-63
2022/04/03 08:40:35;;;;;;;23.77;14.83;;;;;;;4.81;67.42;100053.25;5339393;32;44924;-62
2022/04/03 08:43:40;;;;;;;25.02;14.07;;;;;;;4.40;65.57;100043.66;5372660;32;34141;-64
2022/04/03 08:46:46;;;;;;;24.33;12.77;;;;;;;5.56;64.66;100035.94;5363178;32;35549;-63
2022/04/03 08:49:49;;;;;;;23.63;13.93;;;;;;;5.31;64.23;100042.62;5359641;32;35295;-63
2022/04/03 08:52:52;;;;;;;22.50;12.97;;;;;;;4.39;65.53;100052.38;5372092;32;34736;-62
2022/04/03 08:55:54;;;;;;;23.65;13.05;;;;;;;6.45;60.66;100057.16;5358192;32;34847;-63
2022/04/03 08:58:57;;;;;;;28.53;12.30;;;;;;;7.04;59.08;100051.97;5372604;32;34838;-62
2022/04/03 09:01:59;;;;;;;21.30;12.60;;;;;;;7.35;55.96;100058.88;5359632;32;34667;-64
2022/04/03 09:05:04;;;;;;;20.87;11.17;;;;;;;8.39;53.65;100045.84;5368314;32;35010;-62
2022/04/03 09:08:08;;;;;;;22.40;12.03;;;;;;;9.34;52.40;100047.50;5367032;32;44909;-64
2022/04/03 09:11:10;;;;;;;;;;;;;;;8.32;53.34;100054.78;5362483;32;33995;-64
2022/04/03 09:14:14;;;;;;;19.60;11.30;;;;;;;9.17;51.69;100059.50;5372048;32;34952;-63
2022/04/03 09:17:36;;;;;;;;;;;;;;;9.77;47.63;100057.97;5357179;32;35548;-62
2022/04/03 09:20:40;;;;;;;23.50;12.73;;;;;;;11.15;45.16;100062.50;5370982;32;47378;-62
2022/04/03 09:24:07;;;;;;;20.23;11.97;;;;;;;8.47;51.77;100076.97;5358272;32;34602;-63
2022/04/03 09:27:09;;;;;;;19.30;12.37;;;;;;;8.50;51.02;100080.38;5353952;32;44714;-63
2022/04/03 09:30:12;;;;;;;21.10;13.53;;;;;;;7.76;52.33;100087.19;5373000;32;35708;-63
2022/04/03 09:33:19;;;;;;;23.87;12.10;;;;;;;6.43;56.91;100096.34;5357469;32;34365;-62
2022/04/03 09:36:21;;;;;;;21.67;12.03;;;;;;;6.51;57.19;100089.16;5362905;32;34936;-62
2022/04/03 09:39:28;;;;;;;21.20;11.30;;;;;;;6.83;53.98;100087.44;5332454;32;34746;-63
2022/04/03 09:42:30;;;;;;;20.40;11.47;;;;;;;7.56;50.58;100090.44;5353064;32;35058;-62
2022/04/03 09:45:43;;;;;;;24.10;12.50;;;;;;;9.55;46.52;100091.28;5367338;32;44421;-62
2022/04/03 09:48:45;;;;;;;18.23;11.30;;;;;;;10.21;46.14;100083.31;5345365;32;34868;-62
2022/04/03 09:51:47;;;;;;;23.00;11.37;;;;;;;7.75;49.01;100097.72;5367506;32;34128;-62
2022/04/03 09:54:49;;;;;;;19.67;11.53;;;;;;;8.03;49.48;100102.88;5349711;32;35227;-64
2022/04/03 09:58:05;;;;;;;21.47;11.90;;;;;;;10.89;43.32;100092.63;5361808;32;34635;-62
2022/04/03 10:01:40;;;;;;;20.43;10.70;;;;;;;11.13;41.60;100090.66;5367551;32;35392;-63
2022/04/03 10:04:44;;;;;;;18.37;11.07;;;;;;;8.68;46.01;100110.25;5359306;32;44648;-63
2022/04/03 10:07:47;;;;;;;20.27;10.97;;;;;;;8.40;46.58;100102.53;5372368;32;35600;-63
2022/04/03 10:10:49;;;;;;;17.77;11.27;;;;;;;9.30;46.02;100098.37;5356906;32;35664;-64
2022/04/03 10:13:51;;;;;;;18.63;10.90;;;;;;;9.87;43.36;100089.13;5367472;32;35885;-62
2022/04/03 10:16:55;;;;;;;18.73;11.07;;;;;;;10.43;41.74;100093.78;5362554;32;34263;-63
2022/04/03 10:19:57;;;;;;;17.17;11.03;;;;;;;11.69;38.85;100087.13;5352422;32;34626;-62
2022/04/03 10:23:10;;;;;;;17.20;10.07;;;;;;;9.39;42.60;100104.13;5368701;32;34905;-64
2022/04/03 10:26:18;;;;;;;19.98;10.68;;;;;;;9.65;43.12;100113.59;5353315;32;44755;-62
2022/04/03 10:29:20;;;;;;;19.93;11.37;;;;;;;9.05;43.40;100104.53;5362033;32;34788;-63
2022/04/03 10:32:27;;;;;;;21.77;10.67;;;;;;;10.29;41.17;100112.75;5359287;32;34749;-62
2022/04/03 10:35:29;;;;;;;17.33;10.53;;;;;;;10.97;39.67;100108.06;5358438;32;34818;-64
2022/04/03 10:38:47;;;;;;;19.60;10.80;;;;;;;11.16;39.34;100103.66;5357340;32;34713;-64
2022/04/03 10:41:49;;;;;;;19.10;11.30;;;;;;;10.91;39.76;100119.69;5352673;32;35629;-63
2022/04/03 10:45:19;;;;;;;19.87;10.00;;;;;;;10.69;38.64;100111.94;5367181;32;35201;-62
2022/04/03 10:48:25;;;;;;;19.87;11.00;;;;;;;11.69;36.55;100129.25;5356251;32;34574;-63
2022/04/03 10:51:30;;;;;;;14.70;9.17;;;;;;;11.15;38.67;100130.06;5360967;32;34773;-62
2022/04/03 10:54:41;;;;;;;18.90;10.80;;;;;;;8.64;42.33;100127.88;5366685;32;35462;-64
2022/04/03 10:57:44;;;;;;;15.93;10.27;;;;;;;9.12;41.55;100145.34;5357795;32;46884;-64
2022/04/03 11:00:46;;;;;;;18.70;10.90;;;;;;;10.45;39.76;100134.00;5376544;32;34067;-63
2022/04/03 11:03:54;;;;;;;21.03;9.83;;;;;;;10.45;40.26;100144.50;5356366;32;35558;-62
2022/04/03 11:07:12;;;;;;;17.77;10.23;;;;;;;11.13;36.30;100138.00;5365858;32;35011;-62
2022/04/03 11:10:15;;;;;;;20.83;11.30;;;;;;;8.40;42.16;100147.06;5367136;32;35346;-63
2022/04/03 11:13:34;;;;;;;18.87;10.23;;;;;;;8.62;41.81;100150.62;5359217;32;35450;-61
2022/04/03 11:16:55;;;;;;;17.80;10.10;;;;;;;8.23;43.17;100165.06;5370757;32;46944;-63
2022/04/03 11:19:59;;;;;;;18.70;9.73;;;;;;;9.08;41.21;100156.00;5357562;32;35077;-64
2022/04/03 11:23:03;;;;;;;20.58;10.15;;;;;;;9.00;40.68;100153.66;5359367;32;34952;-62
2022/04/03 11:26:06;;;;;;;17.10;9.53;;;;;;;8.24;43.12;100172.00;5375686;32;44979;-62
2022/04/03 11:29:10;;;;;;;17.40;10.27;;;;;;;9.04;41.70;100165.75;5356544;32;34672;-63
2022/04/03 11:32:14;;;;;;;24.73;9.40;;;;;;;8.00;43.35;100171.91;5371921;32;34742;-63
2022/04/03 11:35:16;;;;;;;16.13;9.57;;;;;;;8.62;43.19;100176.84;5358298;32;35079;-65
2022/04/03 11:38:19;;;;;;;16.57;9.20;;;;;;;9.62;39.33;100167.97;5359057;32;34317;-63
2022/04/03 11:41:31;;;;;;;16.25;9.65;;;;;;;9.58;40.95;100175.09;5329757;32;35124;-61
2022/04/03 11:44:37;;;;;;;16.60;9.70;;;;;;;9.23;41.43;100174.66;5353274;32;46228;-64
2022/04/03 11:47:46;;;;;;;17.83;9.47;;;;;;;9.03;41.06;100174.53;5373370;32;34950;-63
2022/04/03 11:50:52;;;;;;;16.77;9.00;;;;;;;9.12;41.07;100175.97;5359468;32;35298;-63
2022/04/03 11:53:59;;;;;;;18.90;9.13;;;;;;;9.79;40.25;100176.06;5373680;32;34792;-62
2022/04/03 11:57:09;;;;;;;15.90;9.10;;;;;;;10.48;38.92;100186.41;5344293;32;34704;-63
2022/04/03 12:00:11;;;;;;;18.70;8.87;;;;;;;10.04;38.80;100181.16;5362907;32;45900;-63
2022/04/03 12:03:25;;;;;;;15.03;8.23;;;;;;;9.86;38.82;100187.16;5365428;32;35232;-63
2022/04/03 12:06:29;;;;;;;15.23;8.90;;;;;;;10.00;38.70;100192.72;5358036;32;34323;-63
2022/04/03 12:09:32;;;;;;;13.57;8.37;;;;;;;9.12;39.14;100195.16;5374935;32;35223;-64
2022/04/03 12:12:37;;;;;;;14.87;8.73;;;;;;;10.12;36.72;100199.25;5353329;32;43501;-63
2022/04/03 12:15:41;;;;;;;16.20;9.00;;;;;;;10.00;37.88;100195.34;5370302;32;34630;-62
2022/04/03 12:19:02;;;;;;;14.50;7.80;;;;;;;11.91;33.62;100194.94;5362174;32;35594;-62
2022/04/03 12:22:08;;;;;;;14.63;8.17;;;;;;;11.32;33.11;100191.47;5358686;32;45064;-64
2022/04/03 12:25:10;;;;;;;17.17;8.80;;;;;;;11.60;32.36;100187.59;5363234;32;35879;-64
2022/04/03 12:28:12;;;;;;;15.20;8.60;;;;;;;11.52;33.08;100197.59;5358246;32;35729;-65
2022/04/03 12:31:14;;;;;;;18.00;9.73;;;;;;;11.60;32.61;100195.50;5373536;32;35253;-64
2022/04/03 12:34:16;;;;;;;14.00;8.27;;;;;;;10.19;35.86;100193.69;5359492;32;34082;-65
2022/04/03 12:37:19;;;;;;;14.93;8.83;;;;;;;10.19;35.87;100193.69;5360351;32;34459;-64
2022/04/03 12:40:23;;;;;;;14.68;9.15;;;;;;;11.99;33.13;100184.91;5349650;32;35149;-62
2022/04/03 12:43:25;;;;;;;;;;;;;;;9.71;36.50;100192.06;5360067;32;36453;-63
2022/04/03 12:46:46;;;;;;;15.80;7.73;;;;;;;10.47;36.08;100195.22;5373539;32;36652;-64
2022/04/03 12:49:50;;;;;;;14.80;9.00;;;;;;;11.56;33.29;100188.66;5352376;32;35126;-62
2022/04/03 12:52:55;;;;;;;13.80;8.70;;;;;;;9.48;36.37;100186.88;5364706;32;34499;-63
2022/04/03 12:55:58;;;;;;;14.73;8.00;;;;;;;11.29;33.06;100188.16;5341730;32;35320;-63
2022/04/03 12:59:00;;;;;;;13.40;8.35;;;;;;;12.62;30.73;100182.66;5357674;32;35315;-63
2022/04/03 13:02:04;;;;;;;15.70;8.60;;;;;;;12.36;31.10;100186.56;5371912;32;34820;-63
2022/04/03 13:05:12;;;;;;;15.97;8.17;;;;;;;10.72;33.58;100198.50;5360304;32;44960;-63
2022/04/03 13:08:14;;;;;;;13.97;8.70;;;;;;;11.93;31.74;100196.56;5374859;32;34826;-62
2022/04/03 13:12:01;;;;;;;14.40;8.77;;;;;;;10.72;32.53;100203.78;5359236;32;35118;-62
2022/04/03 13:15:03;;;;;;;16.23;8.53;;;;;;;10.75;33.66;100190.47;5354130;32;34494;-64
2022/04/03 13:18:05;;;;;;;17.87;9.37;;;;;;;13.25;29.09;100177.59;5370788;32;46759;-64
2022/04/03 13:21:20;;;;;;;15.47;8.20;;;;;;;11.89;31.45;100179.19;5356327;32;34946;-63
2022/04/03 13:24:23;;;;;;;18.90;9.27;;;;;;;11.04;32.97;100186.59;5374272;32;35277;-64
2022/04/03 13:27:26;;;;;;;15.03;8.27;;;;;;;11.44;33.08;100183.97;5358575;32;34989;-64
2022/04/03 13:30:33;;;;;;;13.87;8.57;;;;;;;8.73;36.77;100196.59;5358928;32;35391;-64
2022/04/03 13:33:35;;;;;;;17.53;7.93;;;;;;;10.08;34.21;100203.75;5367640;32;45242;-64
2022/04/03 13:36:37;;;;;;;13.20;8.20;;;;;;;9.82;34.62;100199.53;5359815;32;34119;-63
2022/04/03 13:39:39;;;;;;;17.50;9.07;;;;;;;9.13;36.06;100196.03;5353171;32;35065;-62
2022/04/03 13:42:41;;;;;;;14.33;8.50;;;;;;;8.47;36.59;100205.31;5356862;32;34936;-63
2022/04/03 13:46:01;;;;;;;13.93;8.30;;;;;;;7.76;38.03;100210.16;5372691;32;34605;-64
2022/04/03 13:49:04;;;;;;;16.57;8.07;;;;;;;7.73;38.76;100197.19;5367209;32;45019;-62
2022/04/03 13:52:07;;;;;;;13.52;7.35;;;;;;;9.22;36.11;100212.28;5357627;32;34234;-63
2022/04/03 13:55:09;;;;;;;13.43;7.43;;;;;;;8.93;36.34;100202.84;5375928;32;34830;-63
2022/04/03 13:58:11;;;;;;;14.73;8.17;;;;;;;8.39;37.00;100202.97;5356339;32;34620;-63
2022/04/03 14:01:14;;;;;;;14.93;8.67;;;;;;;8.45;36.85;100215.00;5374246;32;34599;-63
2022/04/03 14:04:16;;;;;;;16.45;7.97;;;;;;;7.85;38.94;100209.00;5345648;32;35161;-64
2022/04/03 14:07:19;;;;;;;17.53;8.23;;;;;;;8.60;37.37;100206.63;5361393;32;35419;-62
2022/04/03 14:10:21;;;;;;;14.27;7.40;;;;;;;9.26;36.88;100201.69;5369551;32;37279;-63
2022/04/03 14:13:27;;;;;;;14.83;7.60;;;;;;;8.50;36.29;100211.31;5358491;32;35202;-63
2022/04/03 14:16:29;;;;;;;15.53;7.80;;;;;;;8.40;37.20;100220.37;5373071;32;34434;-63
2022/04/03 14:19:31;;;;;;;15.57;8.00;;;;;;;8.97;36.08;100200.97;5354625;32;35054;-62